Philadelphia, Pennsylvania
Traffic Map
Current Weather Conditions
Philadelphia, Pennsylvania
Scattered Clouds
Scattered Clouds
26°
Feels Like: 26°
Wind Chill: 26° Ceiling: Unl
Heat Index: 26° Visibility: 10mi
Dew Point: Wind: 13mph
Humidity: 36% Direction: 250° (WSW)
Pressure: 30.3in Gusts: 0mph
Raw Report DataKPHL 241854Z 25011KT 10SM FEW065 SCT250 26/09 A3030 RMK AO2 SLP260 T02560094 $
Traffic Incident Summary
Active as of:
Severity:
Category:
InformationThere was an issue retrieving the traffic information for this location. Please try a different location or try again shortly.
Advertisements
Track Severe Weather on mobile